Map

Track Data

SID SEASON NUMBER BASIN SUBBASIN NAME ISO_TIME NATURE LAT LON WMO_WIND WMO_PRES WMO_AGENCY TRACK_TYPE DIST2LAND LANDFALL IFLAG USA_AGENCY USA_ATCF_ID USA_LAT USA_LON USA_RECORD USA_STATUS USA_WIND USA_PRES USA_SSHS USA_R34_NE USA_R34_SE USA_R34_SW USA_R34_NW USA_R50_NE USA_R50_SE USA_R50_SW USA_R50_NW USA_R64_NE USA_R64_SE USA_R64_SW USA_R64_NW USA_POCI USA_ROCI USA_RMW USA_EYE TOKYO_LAT TOKYO_LON TOKYO_GRADE TOKYO_WIND TOKYO_PRES TOKYO_R50_DIR TOKYO_R50_LONG TOKYO_R50_SHORT TOKYO_R30_DIR TOKYO_R30_LONG TOKYO_R30_SHORT TOKYO_LAND CMA_LAT CMA_LON CMA_CAT CMA_WIND CMA_PRES HKO_LAT HKO_LON HKO_CAT HKO_WIND HKO_PRES NEWDELHI_LAT NEWDELHI_LON NEWDELHI_GRADE NEWDELHI_WIND NEWDELHI_PRES NEWDELHI_CI NEWDELHI_DP NEWDELHI_POCI REUNION_LAT REUNION_LON REUNION_TYPE REUNION_WIND REUNION_PRES REUNION_TNUM REUNION_CI REUNION_RMW REUNION_R34_NE REUNION_R34_SE REUNION_R34_SW REUNION_R34_NW REUNION_R50_NE REUNION_R50_SE REUNION_R50_SW REUNION_R50_NW REUNION_R64_NE REUNION_R64_SE REUNION_R64_SW REUNION_R64_NW BOM_LAT BOM_LON BOM_TYPE BOM_WIND BOM_PRES BOM_TNUM BOM_CI BOM_RMW BOM_R34_NE BOM_R34_SE BOM_R34_SW BOM_R34_NW BOM_R50_NE BOM_R50_SE BOM_R50_SW BOM_R50_NW BOM_R64_NE BOM_R64_SE BOM_R64_SW BOM_R64_NW BOM_ROCI BOM_POCI BOM_EYE BOM_POS_METHOD BOM_PRES_METHOD NADI_LAT NADI_LON NADI_CAT NADI_WIND NADI_PRES WELLINGTON_LAT WELLINGTON_LON WELLINGTON_WIND WELLINGTON_PRES DS824_LAT DS824_LON DS824_STAGE DS824_WIND DS824_PRES TD9636_LAT TD9636_LON TD9636_STAGE TD9636_WIND TD9636_PRES TD9635_LAT TD9635_LON TD9635_WIND TD9635_PRES TD9635_ROCI NEUMANN_LAT NEUMANN_LON NEUMANN_CLASS NEUMANN_WIND NEUMANN_PRES MLC_LAT MLC_LON MLC_CLASS MLC_WIND MLC_PRES USA_GUST BOM_GUST BOM_GUST_PER REUNION_GUST REUNION_GUST_PER USA_SEAHGT USA_SEARAD_NE USA_SEARAD_SE USA_SEARAD_SW USA_SEARAD_NW STORM_SPEED STORM_DIR
1974232N13235 1974 82 EP MM IONE 1974-08-20 00:00:00 TS 13.0800 -124.600 25 hurdat_epa main 1845 1845 O________OO___ hurdat_epa EP091974 13.0000 -124.400 TD 25 -1 13.0000 -124.400 TC 25 13.4000 -125.400 1 25 16 291
1974232N13235 1974 82 EP MM IONE 1974-08-20 03:00:00 TS 13.3654 -125.353 main 1881 1881 P________PP___ EP091974 13.3155 -125.217 TD 25 -1 13.3155 -125.217 TC 25 13.5650 -125.895 1 26 15 291
1974232N13235 1974 82 EP MM IONE 1974-08-20 06:00:00 TS 13.6247 -126.076 25 hurdat_epa main 1920 1920 O________OP___ hurdat_epa EP091974 13.6000 -126.000 TD 25 -1 13.6000 -126.000 TC 25 13.7236 -126.382 1 27 14 289
1974232N13235 1974 82 EP MM IONE 1974-08-20 09:00:00 TS 13.8380 -126.739 main 1954 1954 P________PP___ EP091974 13.8299 -126.710 TD 25 -1 13.8299 -126.710 TC 25 13.8704 -126.853 1 28 12 288
1974232N13235 1974 82 EP MM IONE 1974-08-20 12:00:00 TS 14.0000 -127.300 25 hurdat_epa main 1988 1988 O________OO___ hurdat_epa EP091974 14.0000 -127.300 TD 25 -1 14.0000 -127.300 TC 25 14.0000 -127.300 1 30 10 287
1974232N13235 1974 82 EP MM IONE 1974-08-20 15:00:00 TS 14.1250 -127.728 main 2009 2007 P________PP___ EP091974 14.1297 -127.730 TD 30 -1 14.1297 -127.730 TC 30 14.1066 -127.719 1 31 8 284
1974232N13235 1974 82 EP MM IONE 1974-08-20 18:00:00 TS 14.1963 -128.105 35 hurdat_epa main 2028 2028 O________OP___ hurdat_epa EP091974 14.2000 -128.100 TS 35 0 14.2000 -128.100 TC 35 14.1816 -128.127 1 32 8 277
1974232N13235 1974 82 EP MM IONE 1974-08-20 21:00:00 TS 14.2271 -128.531 main 2056 2056 P________PP___ EP091974 14.2299 -128.527 TS 35 0 14.2299 -128.527 TC 35 14.2159 -128.547 1 33 9 270
1974232N13235 1974 82 EP MM IONE 1974-08-21 00:00:00 TS 14.2000 -129.000 35 hurdat_epa main 2091 2091 O________OO___ hurdat_epa EP091974 14.2000 -129.000 TS 35 0 14.2000 -129.000 TC 35 14.2000 -129.000 2 35 10 264
1974232N13235 1974 82 EP MM IONE 1974-08-21 03:00:00 TS 14.1247 -129.534 main 2136 2136 P________PP___ EP091974 14.1225 -129.535 TS 35 0 14.1225 -129.535 TC 35 14.1337 -129.531 2 35 11 260
1974232N13235 1974 82 EP MM IONE 1974-08-21 06:00:00 TS 14.0036 -130.099 35 hurdat_epa main 2188 2188 O________OP___ hurdat_epa EP091974 14.0000 -130.100 TS 35 0 14.0000 -130.100 TC 35 14.0178 -130.093 2 35 11 257
1974232N13235 1974 82 EP MM IONE 1974-08-21 09:00:00 TS 13.8655 -130.658 main 2241 2241 P________PP___ EP091974 13.8649 -130.657 TS 35 0 13.8649 -130.657 TC 35 13.8680 -130.659 2 35 11 254
1974232N13235 1974 82 EP MM IONE 1974-08-21 12:00:00 TS 13.7000 -131.200 35 hurdat_epa main 2294 2294 O________OO___ hurdat_epa EP091974 13.7000 -131.200 TS 35 0 13.7000 -131.200 TC 35 13.7000 -131.200 2 35 11 251
1974232N13235 1974 82 EP MM IONE 1974-08-21 15:00:00 TS 13.5045 -131.719 main 2348 2348 P________PP___ EP091974 13.4999 -131.723 TS 32 -1 13.4999 -131.723 TC 32 13.5229 -131.703 2 33 10 248
1974232N13235 1974 82 EP MM IONE 1974-08-21 18:00:00 TS 13.3070 -132.195 30 hurdat_epa main 2402 2402 O________OP___ hurdat_epa EP091974 13.3000 -132.200 TD 30 -1 13.3000 -132.200 TC 30 13.3348 -132.175 2 32 10 247
1974232N13235 1974 82 EP MM IONE 1974-08-21 21:00:00 TS 13.1388 -132.626 main 2449 2436 P________PP___ EP091974 13.1349 -132.630 TD 30 -1 13.1349 -132.630 TC 30 13.1543 -132.610 2 31 8 249
1974232N13235 1974 82 EP MM IONE 1974-08-22 00:00:00 TS 13.0000 -133.000 30 hurdat_epa main 2436 2409 O________OO___ hurdat_epa EP091974 13.0000 -133.000 TD 30 -1 13.0000 -133.000 TC 30 13.0000 -133.000 1 30 7 250
1974232N13235 1974 82 EP MM IONE 1974-08-22 03:00:00 TS 12.8871 -133.319 main 2409 2383 P________PP___ EP091974 12.8849 -133.315 TD 30 -1 12.8849 -133.315 TC 30 12.8958 -133.335 1 30 6 252
1974232N13235 1974 82 EP MM IONE 1974-08-22 06:00:00 TS 12.8039 -133.606 30 hurdat_epa main 2383 2353 O________OP___ hurdat_epa EP091974 12.8000 -133.600 TD 30 -1 12.8000 -133.600 TC 30 12.8194 -133.630 1 30 6 256
1974232N13235 1974 82 EP MM IONE 1974-08-22 09:00:00 TS 12.7516 -133.896 main 2353 2326 P________PP___ EP091974 12.7499 -133.892 TD 30 -1 12.7499 -133.892 TC 30 12.7583 -133.910 1 30 6 260
1974232N13235 1974 82 EP MM IONE 1974-08-22 12:00:00 TS 12.7000 -134.200 30 hurdat_epa main 2326 2300 O________OO___ hurdat_epa EP091974 12.7000 -134.200 TD 30 -1 12.7000 -134.200 TC 30 12.7000 -134.200 1 30 6 257
1974232N13235 1974 82 EP MM IONE 1974-08-22 15:00:00 TS 12.6025 -134.536 main 2300 2265 P________PP___ EP091974 12.6000 -134.543 TD 30 -1 12.6000 -134.543 TC 30 12.6125 -134.511 1 30 7 254
1974232N13235 1974 82 EP MM IONE 1974-08-22 18:00:00 TS 12.5054 -134.888 30 hurdat_epa main 2265 2235 O________OP___ hurdat_epa EP091974 12.5000 -134.900 TD 30 -1 12.5000 -134.900 TC 30 12.5270 -134.840 1 30 7 257
1974232N13235 1974 82 EP MM IONE 1974-08-22 21:00:00 TS 12.4445 -135.222 main 2239 2199 P________PP___ EP091974 12.4424 -135.227 TD 30 -1 12.4424 -135.227 TC 30 12.4530 -135.199 1 30 7 261
1974232N13235 1974 82 EP MM IONE 1974-08-23 00:00:00 TS 12.4000 -135.600 30 hurdat_epa main 2199 2159 O________OO___ hurdat_epa EP091974 12.4000 -135.600 TD 30 -1 12.4000 -135.600 TC 30 12.4000 -135.600 1 30 8 263
1974232N13235 1974 82 EP MM IONE 1974-08-23 03:00:00 TS 12.3413 -136.076 main 2154 2105 P________PP___ EP091974 12.3350 -136.078 TD 30 -1 12.3350 -136.078 TC 30 12.3665 -136.069 1 30 10 265
1974232N13235 1974 82 EP MM IONE 1974-08-23 06:00:00 TS 12.3111 -136.596 30 hurdat_epa main 2105 2055 O________OP___ hurdat_epa EP091974 12.3000 -136.600 TD 30 -1 12.3000 -136.600 TC 30 12.3553 -136.578 1 30 10 270
1974232N13235 1974 82 EP MM IONE 1974-08-23 09:00:00 TS 12.3413 -137.111 main 2055 2002 P________PP___ EP091974 12.3350 -137.115 TD 30 -1 12.3350 -137.115 TC 30 12.3664 -137.097 1 30 10 275
1974232N13235 1974 82 EP MM IONE 1974-08-23 12:00:00 TS 12.4000 -137.600 30 hurdat_epa main 2002 1962 O________OO___ hurdat_epa EP091974 12.4000 -137.600 TD 30 -1 12.4000 -137.600 TC 30 12.4000 -137.600 1 30 9 277
1974232N13235 1974 82 EP MM IONE 1974-08-23 15:00:00 TS 12.4429 -138.015 main 1962 1918 P________PP___ EP091974 12.4423 -138.008 TD 47 0 12.4423 -138.008 TC 47 12.4449 -138.047 1 41 8 277
1974232N13235 1974 82 EP MM IONE 1974-08-23 18:00:00 TS 12.5024 -138.415 65 hurdat_epa main 1918 1875 O________OP___ hurdat_epa EP091974 12.5000 -138.400 HU 65 1 12.5000 -138.400 TC 65 12.5120 -138.473 1 52 8 280
1974232N13235 1974 82 EP MM IONE 1974-08-23 21:00:00 TS 12.5936 -138.857 main 1865 1821 P________PP___ EP091974 12.5925 -138.850 HU 70 1 12.5925 -138.850 TC 70 12.5981 -138.887 1 63 9 283
1974232N13235 1974 82 EP MM IONE 1974-08-24 00:00:00 TS 12.7000 -139.300 75 hurdat_epa main 1821 1777 O________OO___ hurdat_epa EP091974 12.7000 -139.300 HU 75 1 12.7000 -139.300 TC 75 12.7000 -139.300 4 75 9 284
1974232N13235 1974 82 EP MM IONE 1974-08-24 03:00:00 TS 12.7960 -139.711 main 1777 1733 P________PP___ EP091974 12.7924 -139.700 HU 87 2 12.7924 -139.700 TC 87 12.8107 -139.753 4 8 284
1974232N13235 1974 82 EP CP IONE 1974-08-24 06:00:00 TS 12.9019 -140.115 100 hurdat_epa main 1733 1690 O________OP___ hurdat_epa EP091974 12.9000 -140.100 HU 100 3 12.9000 -140.100 TC 100 12.9352 -140.202 4 9 286
1974232N13235 1974 82 EP CP IONE 1974-08-24 09:00:00 TS 13.0354 -140.555 main 1680 1641 P________PP___ EP091974 13.0501 -140.565 HU 95 2 13.0501 -140.565 TC 95 13.0670 -140.625 4 9 287
1974232N13235 1974 82 EP CP IONE 1974-08-24 12:00:00 TS 13.1609 -140.961 90 hurdat_epa main 1631 1603 O________OO___ hurdat_epa EP091974 13.2000 -141.000 HU 90 2 13.2000 -141.000 TC 90 13.2000 -141.000 4 7 286
1974232N13235 1974 82 EP CP IONE 1974-08-24 15:00:00 TS 13.2425 -141.294 main 1603 1569 P________PP___ EP091974 13.2999 -141.338 HU 90 2 13.2999 -141.338 TC 90 13.3206 -141.305 4 6 287
1974232N13235 1974 82 EP CP IONE 1974-08-24 18:00:00 TS 13.3403 -141.577 90 hurdat_epa main 1569 1539 O________OP___ hurdat_epa EP091974 13.4000 -141.600 HU 90 2 13.4000 -141.600 TC 90 13.4421 -141.560 4 6 295
1974232N13235 1974 82 EP CP IONE 1974-08-24 21:00:00 TS 13.4775 -141.811 main 1539 1515 P________PP___ EP091974 13.5424 -141.815 HU 90 2 13.5424 -141.815 TC 90 13.5675 -141.786 4 5 304
1974232N13235 1974 82 EP CP IONE 1974-08-25 00:00:00 TS 13.6333 -142.017 90 hurdat_epa main 1515 1485 O________OO___ hurdat_epa EP091974 13.7000 -142.000 HU 90 2 13.7000 -142.000 TC 90 13.7000 -142.000 4 5 307
1974232N13235 1974 82 EP CP IONE 1974-08-25 03:00:00 TS 13.7852 -142.228 main 1485 1461 P________PP___ EP091974 13.8500 -142.193 HU 90 2 13.8500 -142.193 TC 90 13.8265 -142.232 4 5 307
1974232N13235 1974 82 EP CP IONE 1974-08-25 06:00:00 TS 13.9437 -142.443 90 hurdat_epa main 1461 1422 O________OP___ hurdat_epa EP091974 14.0000 -142.400 HU 90 2 14.0000 -142.400 TC 90 13.9624 -142.458 4 5 306
1974232N13235 1974 82 EP CP IONE 1974-08-25 09:00:00 TS 14.1049 -142.682 main 1422 1393 P________PP___ EP091974 14.1425 -142.650 HU 90 2 14.1425 -142.650 TC 90 14.1171 -142.679 4 6 306
1974232N13235 1974 82 EP CP IONE 1974-08-25 12:00:00 TS 14.2833 -142.917 90 hurdat_epa main 1393 1363 O________OO___ hurdat_epa EP091974 14.3000 -142.900 HU 90 2 14.3000 -142.900 TC 90 14.3000 -142.900 4 6 311
1974232N13235 1974 82 EP CP IONE 1974-08-25 15:00:00 TS 14.4757 -143.120 main 1363 1334 P________PP___ EP091974 14.4774 -143.100 HU 90 2 14.4774 -143.100 TC 90 14.5092 -143.153 4 6 318
1974232N13235 1974 82 EP CP IONE 1974-08-25 18:00:00 TS 14.7079 -143.317 90 hurdat_epa main 1334 1301 O________OP___ hurdat_epa EP091974 14.7000 -143.300 HU 90 2 14.7000 -143.300 TC 90 14.7476 -143.402 4 7 322
1974232N13235 1974 82 EP CP IONE 1974-08-25 21:00:00 TS 14.9979 -143.549 main 1301 1267 P________PP___ EP091974 14.9851 -143.565 HU 90 2 14.9851 -143.565 TC 90 15.0123 -143.625 4 7 325
1974232N13235 1974 82 EP CP IONE 1974-08-26 00:00:00 TS 15.3167 -143.750 90 hurdat_epa main 1267 1235 O________OO___ hurdat_epa EP091974 15.3000 -143.800 HU 90 2 15.3000 -143.800 TC 90 15.3000 -143.800 4 90 7 333
1974232N13235 1974 82 EP CP IONE 1974-08-26 03:00:00 TS 15.6203 -143.883 main 1235 1222 P________PP___ EP091974 15.5925 -143.938 HU 90 2 15.5925 -143.938 TC 90 15.5870 -143.933 4 90 7 342
1974232N13235 1974 82 EP CP IONE 1974-08-26 06:00:00 TS 15.9329 -143.952 90 hurdat_epa main 1212 1201 O________OP___ hurdat_epa EP091974 15.9000 -144.000 HU 90 2 15.9000 -144.000 TC 90 15.8973 -144.012 4 90 6 352
1974232N13235 1974 82 EP CP IONE 1974-08-26 09:00:00 TS 16.2502 -143.985 main 1197 1186 P________PP___ EP091974 16.2275 -144.037 HU 90 2 16.2275 -144.037 TC 90 16.2339 -144.036 4 90 7 0
1974232N13235 1974 82 EP CP IONE 1974-08-26 12:00:00 TS 16.6000 -143.950 90 hurdat_epa main 1197 1184 O________OO___ hurdat_epa EP091974 16.6000 -144.000 HU 90 2 16.6000 -144.000 TC 90 16.6000 -144.000 4 90 8 10
1974232N13235 1974 82 EP CP IONE 1974-08-26 15:00:00 TS 17.0179 -143.839 main 1194 1186 P________PP___ EP091974 17.0425 -143.873 HU 90 2 17.0425 -143.873 TC 90 17.0370 -143.880 4 85 9 17
1974232N13235 1974 82 EP CP IONE 1974-08-26 18:00:00 TS 17.4492 -143.685 90 hurdat_epa main 1194 1191 O________OP___ hurdat_epa EP091974 17.5000 -143.700 HU 90 2 17.5000 -143.700 TC 90 17.4952 -143.709 4 80 9 20
1974232N13235 1974 82 EP CP IONE 1974-08-26 21:00:00 TS 17.8576 -143.525 main 1203 1201 P________PP___ EP091974 17.9375 -143.528 HU 80 1 17.9375 -143.528 TC 80 17.9308 -143.533 4 75 8 20
1974232N13235 1974 82 EP CP IONE 1974-08-27 00:00:00 TS 18.2000 -143.400 70 hurdat_epa main 1208 1205 O________OO___ hurdat_epa EP091974 18.3000 -143.400 HU 70 1 18.3000 -143.400 TC 70 18.3000 -143.400 4 70 6 15
1974232N13235 1974 82 EP CP IONE 1974-08-27 03:00:00 TS 18.4329 -143.358 main 1205 1202 P________PP___ EP091974 18.5375 -143.370 HU 70 1 18.5375 -143.370 TC 70 18.5549 -143.374 4 70 4 6
1974232N13235 1974 82 EP CP IONE 1974-08-27 06:00:00 TS 18.6066 -143.366 70 hurdat_epa main 1202 1199 O________OP___ hurdat_epa EP091974 18.7000 -143.400 HU 70 1 18.7000 -143.400 TC 70 18.7399 -143.397 4 70 4 353
1974232N13235 1974 82 EP CP IONE 1974-08-27 09:00:00 TS 18.7837 -143.394 main 1199 1198 P________PP___ EP091974 18.8575 -143.450 HU 70 1 18.8575 -143.450 TC 70 18.8799 -143.446 4 70 4 349
1974232N13235 1974 82 EP CP IONE 1974-08-27 12:00:00 TS 18.9500 -143.433 70 hurdat_epa main 1197 1186 O________OO___ hurdat_epa EP091974 19.0000 -143.500 HU 70 1 19.0000 -143.500 TC 70 19.0000 -143.500 4 70 3 352
1974232N13235 1974 82 EP CP IONE 1974-08-27 15:00:00 TS 19.1205 -143.453 main 1186 1185 P________PP___ EP091974 19.1575 -143.500 HU 60 0 19.1575 -143.500 TC 60 19.1207 -143.540 4 60 3 352
1974232N13235 1974 82 EP CP IONE 1974-08-27 18:00:00 TS 19.2754 -143.474 50 hurdat_epa main 1185 1184 O________OP___ hurdat_epa EP091974 19.3000 -143.500 TS 50 0 19.3000 -143.500 TC 50 19.2450 -143.568 4 50 3 0
1974232N13235 1974 82 EP CP IONE 1974-08-27 21:00:00 TS 19.4169 -143.478 main 1184 1173 P________PP___ EP091974 19.4298 -143.490 TS 40 0 19.4298 -143.490 TC 40 19.3719 -143.586 4 40 2 337
1974232N13235 1974 82 EP CP IONE 1974-08-28 00:00:00 TS 19.5000 -143.581 30 hurdat_epa main 1173 1142 O________OO___ hurdat_epa EP091974 19.5000 -143.600 TD 30 -1 19.5000 -143.600 TC 30 19.5000 -143.600 1 30 4 284
1974232N13235 1974 82 EP CP IONE 1974-08-28 03:00:00 TS 19.5201 -143.905 main 1142 1100 P________P____ EP091974 19.5102 -143.955 TD 30 -1 19.5102 -143.955 TC 30 1 7 263
1974232N13235 1974 82 EP CP IONE 1974-08-28 06:00:00 TS 19.4200 -144.320 30 hurdat_epa main 1100 1060 O________O____ hurdat_epa EP091974 19.4000 -144.400 TD 30 -1 19.4000 -144.400 TC 30 1 8 244
1974232N13235 1974 82 EP CP IONE 1974-08-28 09:00:00 TS 19.1615 -144.701 main 1060 1031 P________P____ EP091974 19.1300 -144.780 TD 27 -1 19.1300 -144.780 TC 27 1 9 230
1974232N13235 1974 82 EP CP IONE 1974-08-28 12:00:00 TS 18.8400 -145.040 25 hurdat_epa main 1032 1003 O________O____ hurdat_epa EP091974 18.8000 -145.100 TD 25 -1 18.8000 -145.100 TC 25 8 223
1974232N13235 1974 82 EP CP IONE 1974-08-28 15:00:00 TS 18.5809 -145.279 main 1003 985 P________P____ EP091974 18.5348 -145.307 TD 25 -1 18.5348 -145.307 TC 25 7 221
1974232N13235 1974 82 EP CP IONE 1974-08-28 18:00:00 TS 18.3400 -145.500 25 hurdat_epa main 987 960 O________O____ hurdat_epa EP091974 18.3000 -145.500 TD 25 -1 18.3000 -145.500 TC 25 7 226
1974232N13235 1974 82 EP CP IONE 1974-08-28 21:00:00 TS 18.1100 -145.783 main 960 933 P________P____ EP091974 18.1000 -145.777 TD 25 -1 18.1000 -145.777 TC 25 7 231
1974232N13235 1974 82 EP CP IONE 1974-08-29 00:00:00 TS 17.8800 -146.100 25 hurdat_epa main 933 907 O________O____ hurdat_epa EP091974 17.9000 -146.100 TD 25 -1 17.9000 -146.100 TC 25 8 231
1974232N13235 1974 82 EP CP IONE 1974-08-29 03:00:00 TS 17.6164 -146.418 main 910 875 P________P____ EP091974 17.6424 -146.428 TD 25 -1 17.6424 -146.428 TC 25 8 232
1974232N13235 1974 82 EP CP IONE 1974-08-29 06:00:00 TS 17.3800 -146.780 25 hurdat_epa main 875 842 O________O____ hurdat_epa EP091974 17.4000 -146.800 TD 25 -1 17.4000 -146.800 TC 25 9 242
1974232N13235 1974 82 EP CP IONE 1974-08-29 09:00:00 TS 17.2100 -147.213 main 842 796 P________P____ EP091974 17.2200 -147.235 TD 25 -1 17.2200 -147.235 TC 25 9 252
1974232N13235 1974 82 EP CP IONE 1974-08-29 12:00:00 TS 17.1000 -147.680 25 hurdat_epa main 796 760 O________O____ hurdat_epa EP091974 17.1000 -147.700 TD 25 -1 17.1000 -147.700 TC 25 9 258
1974232N13235 1974 82 EP CP IONE 1974-08-29 15:00:00 TS 17.0289 -148.127 main 760 711 P________P____ EP091974 17.0274 -148.150 TD 25 -1 17.0274 -148.150 TC 25 9 263
1974232N13235 1974 82 EP CP IONE 1974-08-29 18:00:00 TS 17.0000 -148.580 25 hurdat_epa main 711 678 O________O____ hurdat_epa EP091974 17.0000 -148.600 TD 25 -1 17.0000 -148.600 TC 25 9 265
1974232N13235 1974 82 EP CP IONE 1974-08-29 21:00:00 TS 16.9458 -149.031 main 678 625 P________P____ EP091974 16.9322 -149.028 TD 25 -1 16.9322 -149.028 TC 25 9 270
1974232N13235 1974 82 EP CP IONE 1974-08-30 00:00:00 TS 17.0000 -149.525 25 hurdat_epa main 625 568 O________O____ hurdat_epa EP091974 17.0000 -149.500 TD 25 -1 17.0000 -149.500 TC 25 10 284
1974232N13235 1974 82 EP CP IONE 1974-08-30 03:00:00 TS 17.2011 -150.079 main 558 501 P________P____ EP091974 17.4751 -150.091 TD 25 -1 17.3230 -150.069 TC 25 11 288
1974232N13235 1974 82 EP CP IONE 1974-08-30 06:00:00 TS 17.3500 -150.650 25 hurdat_epa main 501 487 O________O____ hurdat_epa EP091974 17.8000 -150.700 TD 25 -1 17.8000 -150.700 TC 25 11 251
1974232N13235 1974 82 EP CP IONE 1974-08-30 09:00:00 NR 16.8500 -151.150 main 494 445 P_____________ EP091974 17.3673 -151.216 TD 25 -1 TC 11 241
1974232N13235 1974 82 EP CP IONE 1974-08-30 12:00:00 NR 16.8000 -151.700 25 cphc main 445 407 O_____________ cphc 16.8000 -151.700 25 10 265
1974232N13235 1974 82 EP CP IONE 1974-08-30 15:00:00 NR 16.7572 -152.192 main 407 379 P_____________ 16.6898 -152.184 25 10 264
1974232N13235 1974 82 EP CP IONE 1974-08-30 18:00:00 NR 16.7000 -152.700 25 cphc main 379 357 O_____________ cphc 16.7000 -152.700 25 11 262
1974232N13235 1974 82 EP CP IONE 1974-08-30 21:00:00 NR 16.6105 -153.278 main 351 329 P_____________ 16.6330 -153.281 22 12 260
1974232N13235 1974 82 EP CP IONE 1974-08-31 00:00:00 NR 16.5000 -153.900 20 cphc main 329 O_____________ cphc 16.5000 -153.900 20 12 260

About IBTrACS Database

This database is a web-friendly format of International Best Track Archive for Climate Stewardship (IBTrACS), a global best track data archive curated by NOAA dating back to 1842.

Updated: 2021-11-26